sensor_id;sensor_type;location;lat;lon;timestamp;P1;durP1;ratioP1;P2;durP2;ratioP2
16963;SDS011;8598;50.508;10.436;2022-07-24T00:01:11;9.30;;;7.10;;
16963;SDS011;8598;50.508;10.436;2022-07-24T00:03:37;10.93;;;7.53;;
16963;SDS011;8598;50.508;10.436;2022-07-24T00:06:04;8.03;;;6.67;;
16963;SDS011;8598;50.508;10.436;2022-07-24T00:08:31;8.07;;;7.03;;
16963;SDS011;8598;50.508;10.436;2022-07-24T00:10:59;10.97;;;7.33;;
16963;SDS011;8598;50.508;10.436;2022-07-24T00:13:25;9.03;;;7.27;;
16963;SDS011;8598;50.508;10.436;2022-07-24T00:15:52;10.53;;;7.53;;
16963;SDS011;8598;50.508;10.436;2022-07-24T00:18:19;7.40;;;6.30;;
16963;SDS011;8598;50.508;10.436;2022-07-24T00:20:45;11.60;;;7.37;;
16963;SDS011;8598;50.508;10.436;2022-07-24T00:23:12;9.10;;;7.30;;
16963;SDS011;8598;50.508;10.436;2022-07-24T00:25:41;9.50;;;8.23;;
16963;SDS011;8598;50.508;10.436;2022-07-24T00:28:09;11.47;;;7.53;;
16963;SDS011;8598;50.508;10.436;2022-07-24T00:30:36;8.70;;;7.70;;
16963;SDS011;8598;50.508;10.436;2022-07-24T00:33:03;11.10;;;7.97;;
16963;SDS011;8598;50.508;10.436;2022-07-24T00:35:29;11.03;;;8.07;;
16963;SDS011;8598;50.508;10.436;2022-07-24T00:37:56;11.77;;;6.90;;
16963;SDS011;8598;50.508;10.436;2022-07-24T00:40:23;8.87;;;7.90;;
16963;SDS011;8598;50.508;10.436;2022-07-24T00:42:50;12.90;;;7.27;;
16963;SDS011;8598;50.508;10.436;2022-07-24T00:45:18;11.43;;;7.30;;
16963;SDS011;8598;50.508;10.436;2022-07-24T00:47:45;9.90;;;7.63;;
16963;SDS011;8598;50.508;10.436;2022-07-24T00:50:11;10.57;;;8.13;;
16963;SDS011;8598;50.508;10.436;2022-07-24T00:52:38;8.90;;;8.00;;
16963;SDS011;8598;50.508;10.436;2022-07-24T00:55:05;9.87;;;7.00;;
16963;SDS011;8598;50.508;10.436;2022-07-24T00:57:33;8.97;;;7.57;;
16963;SDS011;8598;50.508;10.436;2022-07-24T00:59:59;11.23;;;7.97;;
16963;SDS011;8598;50.508;10.436;2022-07-24T01:02:27;8.50;;;6.87;;
16963;SDS011;8598;50.508;10.436;2022-07-24T01:04:54;11.07;;;7.50;;
16963;SDS011;8598;50.508;10.436;2022-07-24T01:07:21;10.70;;;7.67;;
16963;SDS011;8598;50.508;10.436;2022-07-24T01:09:47;8.40;;;7.00;;
16963;SDS011;8598;50.508;10.436;2022-07-24T01:12:14;12.20;;;7.17;;
16963;SDS011;8598;50.508;10.436;2022-07-24T01:14:42;8.63;;;7.20;;
16963;SDS011;8598;50.508;10.436;2022-07-24T01:17:09;13.23;;;8.37;;
16963;SDS011;8598;50.508;10.436;2022-07-24T01:19:38;9.93;;;7.80;;
16963;SDS011;8598;50.508;10.436;2022-07-24T01:22:06;11.17;;;8.20;;
16963;SDS011;8598;50.508;10.436;2022-07-24T01:24:33;9.23;;;8.13;;
16963;SDS011;8598;50.508;10.436;2022-07-24T01:27:00;7.27;;;6.53;;
16963;SDS011;8598;50.508;10.436;2022-07-24T01:29:27;9.90;;;7.73;;
16963;SDS011;8598;50.508;10.436;2022-07-24T01:31:53;9.67;;;7.30;;
16963;SDS011;8598;50.508;10.436;2022-07-24T01:34:20;8.23;;;7.13;;
16963;SDS011;8598;50.508;10.436;2022-07-24T01:36:47;8.37;;;6.90;;
16963;SDS011;8598;50.508;10.436;2022-07-24T01:39:15;9.03;;;7.10;;
16963;SDS011;8598;50.508;10.436;2022-07-24T01:41:42;9.30;;;7.20;;
16963;SDS011;8598;50.508;10.436;2022-07-24T01:44:08;10.50;;;7.40;;
16963;SDS011;8598;50.508;10.436;2022-07-24T01:46:35;7.27;;;6.40;;
16963;SDS011;8598;50.508;10.436;2022-07-24T01:49:02;8.83;;;7.00;;
16963;SDS011;8598;50.508;10.436;2022-07-24T01:51:29;8.47;;;6.93;;
16963;SDS011;8598;50.508;10.436;2022-07-24T01:53:56;7.97;;;7.00;;
16963;SDS011;8598;50.508;10.436;2022-07-24T01:56:24;9.30;;;7.17;;
16963;SDS011;8598;50.508;10.436;2022-07-24T01:58:50;7.60;;;6.80;;
16963;SDS011;8598;50.508;10.436;2022-07-24T02:01:17;7.80;;;7.00;;
16963;SDS011;8598;50.508;10.436;2022-07-24T02:03:43;9.67;;;7.07;;
16963;SDS011;8598;50.508;10.436;2022-07-24T02:06:10;8.77;;;7.23;;
16963;SDS011;8598;50.508;10.436;2022-07-24T02:08:37;11.73;;;7.20;;
16963;SDS011;8598;50.508;10.436;2022-07-24T02:11:03;11.50;;;7.53;;
16963;SDS011;8598;50.508;10.436;2022-07-24T02:13:32;9.77;;;7.33;;
16963;SDS011;8598;50.508;10.436;2022-07-24T02:15:58;8.93;;;7.67;;
16963;SDS011;8598;50.508;10.436;2022-07-24T02:18:25;10.07;;;7.73;;
16963;SDS011;8598;50.508;10.436;2022-07-24T02:20:52;9.97;;;7.43;;
16963;SDS011;8598;50.508;10.436;2022-07-24T02:23:19;9.87;;;7.37;;
16963;SDS011;8598;50.508;10.436;2022-07-24T02:25:46;12.60;;;8.53;;
16963;SDS011;8598;50.508;10.436;2022-07-24T02:28:14;10.97;;;7.87;;
16963;SDS011;8598;50.508;10.436;2022-07-24T02:30:42;10.53;;;7.60;;
16963;SDS011;8598;50.508;10.436;2022-07-24T02:33:10;10.50;;;7.97;;
16963;SDS011;8598;50.508;10.436;2022-07-24T02:35:37;9.33;;;7.10;;
16963;SDS011;8598;50.508;10.436;2022-07-24T02:38:04;9.57;;;7.60;;
16963;SDS011;8598;50.508;10.436;2022-07-24T02:40:31;8.53;;;7.43;;
16963;SDS011;8598;50.508;10.436;2022-07-24T02:42:57;10.83;;;6.97;;
16963;SDS011;8598;50.508;10.436;2022-07-24T02:45:24;10.33;;;7.10;;
16963;SDS011;8598;50.508;10.436;2022-07-24T02:47:53;8.73;;;7.23;;
16963;SDS011;8598;50.508;10.436;2022-07-24T02:50:21;11.67;;;8.47;;
16963;SDS011;8598;50.508;10.436;2022-07-24T02:52:49;10.27;;;7.60;;
16963;SDS011;8598;50.508;10.436;2022-07-24T02:55:16;9.90;;;7.50;;
16963;SDS011;8598;50.508;10.436;2022-07-24T02:57:43;9.90;;;8.03;;
16963;SDS011;8598;50.508;10.436;2022-07-24T03:00:11;12.20;;;8.50;;
16963;SDS011;8598;50.508;10.436;2022-07-24T03:02:40;8.47;;;7.27;;
16963;SDS011;8598;50.508;10.436;2022-07-24T03:05:09;12.60;;;8.30;;
16963;SDS011;8598;50.508;10.436;2022-07-24T03:07:36;9.67;;;7.90;;
16963;SDS011;8598;50.508;10.436;2022-07-24T03:10:03;11.17;;;8.13;;
16963;SDS011;8598;50.508;10.436;2022-07-24T03:12:29;9.87;;;8.03;;
16963;SDS011;8598;50.508;10.436;2022-07-24T03:14:56;10.43;;;8.07;;
16963;SDS011;8598;50.508;10.436;2022-07-24T03:17:23;11.67;;;8.10;;
16963;SDS011;8598;50.508;10.436;2022-07-24T03:19:49;12.00;;;7.67;;
16963;SDS011;8598;50.508;10.436;2022-07-24T03:22:17;9.93;;;8.40;;
16963;SDS011;8598;50.508;10.436;2022-07-24T03:24:44;11.27;;;8.30;;
16963;SDS011;8598;50.508;10.436;2022-07-24T03:27:11;11.17;;;8.73;;
16963;SDS011;8598;50.508;10.436;2022-07-24T03:29:37;10.20;;;8.50;;
16963;SDS011;8598;50.508;10.436;2022-07-24T03:32:04;13.13;;;8.43;;
16963;SDS011;8598;50.508;10.436;2022-07-24T03:34:31;13.17;;;8.13;;
16963;SDS011;8598;50.508;10.436;2022-07-24T03:36:58;10.20;;;8.43;;
16963;SDS011;8598;50.508;10.436;2022-07-24T03:39:26;10.57;;;8.73;;
16963;SDS011;8598;50.508;10.436;2022-07-24T03:41:53;10.47;;;8.33;;
16963;SDS011;8598;50.508;10.436;2022-07-24T03:44:19;10.00;;;8.03;;
16963;SDS011;8598;50.508;10.436;2022-07-24T03:46:46;9.33;;;8.33;;
16963;SDS011;8598;50.508;10.436;2022-07-24T03:49:13;9.17;;;8.03;;
16963;SDS011;8598;50.508;10.436;2022-07-24T03:51:39;12.80;;;7.70;;
16963;SDS011;8598;50.508;10.436;2022-07-24T03:54:06;11.30;;;8.73;;
16963;SDS011;8598;50.508;10.436;2022-07-24T03:56:34;10.13;;;8.23;;
16963;SDS011;8598;50.508;10.436;2022-07-24T03:59:01;10.43;;;8.37;;
16963;SDS011;8598;50.508;10.436;2022-07-24T04:01:27;10.63;;;7.93;;
16963;SDS011;8598;50.508;10.436;2022-07-24T04:03:54;9.97;;;7.60;;
16963;SDS011;8598;50.508;10.436;2022-07-24T04:06:23;11.30;;;7.93;;
16963;SDS011;8598;50.508;10.436;2022-07-24T04:08:49;9.43;;;7.33;;
16963;SDS011;8598;50.508;10.436;2022-07-24T04:11:16;10.03;;;8.00;;
16963;SDS011;8598;50.508;10.436;2022-07-24T04:13:44;8.97;;;7.63;;
16963;SDS011;8598;50.508;10.436;2022-07-24T04:16:11;8.27;;;7.00;;
16963;SDS011;8598;50.508;10.436;2022-07-24T04:18:37;7.60;;;6.80;;
16963;SDS011;8598;50.508;10.436;2022-07-24T04:21:04;11.97;;;7.87;;
16963;SDS011;8598;50.508;10.436;2022-07-24T04:23:31;12.03;;;9.17;;
16963;SDS011;8598;50.508;10.436;2022-07-24T04:26:00;9.37;;;6.77;;
16963;SDS011;8598;50.508;10.436;2022-07-24T04:28:27;10.30;;;8.03;;
16963;SDS011;8598;50.508;10.436;2022-07-24T04:30:55;9.37;;;7.30;;
16963;SDS011;8598;50.508;10.436;2022-07-24T04:33:22;10.97;;;7.27;;
16963;SDS011;8598;50.508;10.436;2022-07-24T04:35:48;10.27;;;7.47;;
16963;SDS011;8598;50.508;10.436;2022-07-24T04:38:15;7.63;;;6.83;;
16963;SDS011;8598;50.508;10.436;2022-07-24T04:40:41;9.23;;;6.73;;
16963;SDS011;8598;50.508;10.436;2022-07-24T04:43:08;10.23;;;7.10;;
16963;SDS011;8598;50.508;10.436;2022-07-24T04:45:35;13.23;;;7.53;;
16963;SDS011;8598;50.508;10.436;2022-07-24T04:48:03;8.10;;;7.27;;
16963;SDS011;8598;50.508;10.436;2022-07-24T04:50:31;8.17;;;7.37;;
16963;SDS011;8598;50.508;10.436;2022-07-24T04:52:58;11.33;;;7.70;;
16963;SDS011;8598;50.508;10.436;2022-07-24T04:55:25;10.23;;;7.47;;
16963;SDS011;8598;50.508;10.436;2022-07-24T04:57:54;8.23;;;7.00;;
16963;SDS011;8598;50.508;10.436;2022-07-24T05:00:21;8.67;;;7.57;;
16963;SDS011;8598;50.508;10.436;2022-07-24T05:02:48;9.83;;;7.00;;
16963;SDS011;8598;50.508;10.436;2022-07-24T05:05:16;9.93;;;7.80;;
16963;SDS011;8598;50.508;10.436;2022-07-24T05:07:42;7.50;;;6.60;;
16963;SDS011;8598;50.508;10.436;2022-07-24T05:10:09;8.50;;;6.67;;
16963;SDS011;8598;50.508;10.436;2022-07-24T05:12:36;7.40;;;6.60;;
16963;SDS011;8598;50.508;10.436;2022-07-24T05:15:03;7.33;;;6.63;;
16963;SDS011;8598;50.508;10.436;2022-07-24T05:17:30;8.20;;;7.23;;
16963;SDS011;8598;50.508;10.436;2022-07-24T05:19:57;9.27;;;5.63;;
16963;SDS011;8598;50.508;10.436;2022-07-24T05:22:25;11.50;;;6.27;;
16963;SDS011;8598;50.508;10.436;2022-07-24T05:24:51;5.93;;;4.83;;
16963;SDS011;8598;50.508;10.436;2022-07-24T05:27:18;7.13;;;4.37;;
16963;SDS011;8598;50.508;10.436;2022-07-24T05:29:44;6.63;;;4.97;;
16963;SDS011;8598;50.508;10.436;2022-07-24T05:32:12;4.70;;;3.93;;
16963;SDS011;8598;50.508;10.436;2022-07-24T05:34:39;4.73;;;4.00;;
16963;SDS011;8598;50.508;10.436;2022-07-24T05:37:05;4.17;;;3.50;;
16963;SDS011;8598;50.508;10.436;2022-07-24T05:39:34;3.87;;;3.57;;
16963;SDS011;8598;50.508;10.436;2022-07-24T05:42:01;5.33;;;4.10;;
16963;SDS011;8598;50.508;10.436;2022-07-24T05:44:28;4.50;;;3.50;;
16963;SDS011;8598;50.508;10.436;2022-07-24T05:46:54;4.60;;;3.27;;
16963;SDS011;8598;50.508;10.436;2022-07-24T05:49:21;3.93;;;3.27;;
16963;SDS011;8598;50.508;10.436;2022-07-24T05:51:48;4.37;;;3.97;;
16963;SDS011;8598;50.508;10.436;2022-07-24T05:54:14;4.23;;;3.83;;
16963;SDS011;8598;50.508;10.436;2022-07-24T05:56:42;3.90;;;3.50;;
16963;SDS011;8598;50.508;10.436;2022-07-24T05:59:09;3.83;;;3.53;;
16963;SDS011;8598;50.508;10.436;2022-07-24T06:01:35;4.07;;;3.40;;
16963;SDS011;8598;50.508;10.436;2022-07-24T06:04:02;4.20;;;3.40;;
16963;SDS011;8598;50.508;10.436;2022-07-24T06:06:29;4.70;;;3.40;;
16963;SDS011;8598;50.508;10.436;2022-07-24T06:08:56;5.97;;;3.80;;
16963;SDS011;8598;50.508;10.436;2022-07-24T06:11:22;5.93;;;3.87;;
16963;SDS011;8598;50.508;10.436;2022-07-24T06:13:50;6.10;;;3.70;;
16963;SDS011;8598;50.508;10.436;2022-07-24T06:16:17;3.30;;;3.00;;
16963;SDS011;8598;50.508;10.436;2022-07-24T06:18:44;4.17;;;3.27;;
16963;SDS011;8598;50.508;10.436;2022-07-24T06:21:11;6.03;;;3.30;;
16963;SDS011;8598;50.508;10.436;2022-07-24T06:23:38;2.97;;;2.70;;
16963;SDS011;8598;50.508;10.436;2022-07-24T06:26:04;3.97;;;3.00;;
16963;SDS011;8598;50.508;10.436;2022-07-24T06:28:31;4.47;;;2.97;;
16963;SDS011;8598;50.508;10.436;2022-07-24T06:31:01;4.10;;;3.00;;
16963;SDS011;8598;50.508;10.436;2022-07-24T06:33:28;4.57;;;3.10;;
16963;SDS011;8598;50.508;10.436;2022-07-24T06:35:54;5.60;;;3.33;;
16963;SDS011;8598;50.508;10.436;2022-07-24T06:38:21;3.60;;;3.30;;
16963;SDS011;8598;50.508;10.436;2022-07-24T06:40:48;4.30;;;3.20;;
16963;SDS011;8598;50.508;10.436;2022-07-24T06:43:15;3.70;;;3.40;;
16963;SDS011;8598;50.508;10.436;2022-07-24T06:45:41;3.30;;;3.00;;
16963;SDS011;8598;50.508;10.436;2022-07-24T06:48:10;3.40;;;3.07;;
16963;SDS011;8598;50.508;10.436;2022-07-24T06:50:36;3.93;;;3.20;;
16963;SDS011;8598;50.508;10.436;2022-07-24T06:53:06;6.07;;;3.40;;
16963;SDS011;8598;50.508;10.436;2022-07-24T06:55:33;4.15;;;3.03;;
16963;SDS011;8598;50.508;10.436;2022-07-24T06:57:59;3.53;;;3.07;;
16963;SDS011;8598;50.508;10.436;2022-07-24T07:00:29;3.10;;;2.67;;
16963;SDS011;8598;50.508;10.436;2022-07-24T07:02:56;4.15;;;2.97;;
16963;SDS011;8598;50.508;10.436;2022-07-24T07:05:24;3.00;;;2.70;;
16963;SDS011;8598;50.508;10.436;2022-07-24T07:07:51;5.43;;;2.83;;
16963;SDS011;8598;50.508;10.436;2022-07-24T07:10:17;3.58;;;2.88;;
16963;SDS011;8598;50.508;10.436;2022-07-24T07:12:44;4.55;;;2.80;;
16963;SDS011;8598;50.508;10.436;2022-07-24T07:15:11;5.78;;;2.70;;
16963;SDS011;8598;50.508;10.436;2022-07-24T07:17:38;5.65;;;2.85;;
16963;SDS011;8598;50.508;10.436;2022-07-24T07:20:06;3.70;;;2.40;;
16963;SDS011;8598;50.508;10.436;2022-07-24T07:22:35;4.18;;;3.00;;
16963;SDS011;8598;50.508;10.436;2022-07-24T07:25:03;6.68;;;2.97;;
16963;SDS011;8598;50.508;10.436;2022-07-24T07:27:31;2.75;;;2.30;;
16963;SDS011;8598;50.508;10.436;2022-07-24T07:29:58;2.92;;;2.60;;
16963;SDS011;8598;50.508;10.436;2022-07-24T07:32:24;3.20;;;2.90;;
16963;SDS011;8598;50.508;10.436;2022-07-24T07:34:51;4.72;;;2.75;;
16963;SDS011;8598;50.508;10.436;2022-07-24T07:37:18;2.88;;;2.67;;
16963;SDS011;8598;50.508;10.436;2022-07-24T07:39:46;3.78;;;2.72;;
16963;SDS011;8598;50.508;10.436;2022-07-24T07:42:12;6.82;;;3.33;;
16963;SDS011;8598;50.508;10.436;2022-07-24T07:44:39;5.55;;;3.03;;
16963;SDS011;8598;50.508;10.436;2022-07-24T07:47:08;4.22;;;2.97;;
16963;SDS011;8598;50.508;10.436;2022-07-24T07:49:35;3.25;;;2.95;;
16963;SDS011;8598;50.508;10.436;2022-07-24T07:52:01;2.92;;;2.63;;
16963;SDS011;8598;50.508;10.436;2022-07-24T07:54:29;3.78;;;2.85;;
16963;SDS011;8598;50.508;10.436;2022-07-24T07:56:57;3.78;;;2.95;;
16963;SDS011;8598;50.508;10.436;2022-07-24T07:59:23;5.20;;;2.92;;
16963;SDS011;8598;50.508;10.436;2022-07-24T08:01:50;3.10;;;2.80;;
16963;SDS011;8598;50.508;10.436;2022-07-24T08:04:17;4.32;;;3.20;;
16963;SDS011;8598;50.508;10.436;2022-07-24T08:06:43;4.28;;;3.15;;
16963;SDS011;8598;50.508;10.436;2022-07-24T08:09:10;2.95;;;2.65;;
16963;SDS011;8598;50.508;10.436;2022-07-24T08:11:37;4.45;;;3.00;;
16963;SDS011;8598;50.508;10.436;2022-07-24T08:14:05;4.03;;;2.83;;
16963;SDS011;8598;50.508;10.436;2022-07-24T08:16:32;3.72;;;3.03;;
16963;SDS011;8598;50.508;10.436;2022-07-24T08:18:58;3.70;;;2.83;;
16963;SDS011;8598;50.508;10.436;2022-07-24T08:21:25;3.42;;;3.10;;
16963;SDS011;8598;50.508;10.436;2022-07-24T08:23:53;3.72;;;2.80;;
16963;SDS011;8598;50.508;10.436;2022-07-24T08:26:21;7.97;;;2.67;;
16963;SDS011;8598;50.508;10.436;2022-07-24T08:28:48;3.13;;;2.83;;
16963;SDS011;8598;50.508;10.436;2022-07-24T08:31:16;3.90;;;2.70;;
16963;SDS011;8598;50.508;10.436;2022-07-24T08:33:43;3.08;;;2.72;;
16963;SDS011;8598;50.508;10.436;2022-07-24T08:36:09;3.35;;;3.03;;
16963;SDS011;8598;50.508;10.436;2022-07-24T08:38:36;7.10;;;3.22;;
16963;SDS011;8598;50.508;10.436;2022-07-24T08:41:03;5.20;;;3.08;;
16963;SDS011;8598;50.508;10.436;2022-07-24T08:43:30;3.53;;;2.72;;
16963;SDS011;8598;50.508;10.436;2022-07-24T08:45:57;6.30;;;3.15;;
16963;SDS011;8598;50.508;10.436;2022-07-24T08:48:27;5.40;;;3.03;;
16963;SDS011;8598;50.508;10.436;2022-07-24T08:50:54;6.38;;;3.20;;
16963;SDS011;8598;50.508;10.436;2022-07-24T08:53:23;4.13;;;3.08;;
16963;SDS011;8598;50.508;10.436;2022-07-24T08:55:50;3.35;;;3.05;;
16963;SDS011;8598;50.508;10.436;2022-07-24T08:58:16;5.57;;;3.00;;
16963;SDS011;8598;50.508;10.436;2022-07-24T09:00:43;3.95;;;3.55;;
16963;SDS011;8598;50.508;10.436;2022-07-24T09:03:10;6.22;;;3.35;;
16963;SDS011;8598;50.508;10.436;2022-07-24T09:08:30;5.00;;;3.78;;
16963;SDS011;8598;50.508;10.436;2022-07-24T09:10:57;5.38;;;3.47;;
16963;SDS011;8598;50.508;10.436;2022-07-24T09:13:25;4.32;;;3.72;;
16963;SDS011;8598;50.508;10.436;2022-07-24T09:15:55;4.78;;;3.15;;
16963;SDS011;8598;50.508;10.436;2022-07-24T09:18:25;3.60;;;3.30;;
16963;SDS011;8598;50.508;10.436;2022-07-24T09:20:53;3.65;;;3.33;;
16963;SDS011;8598;50.508;10.436;2022-07-24T09:23:20;4.45;;;4.05;;
16963;SDS011;8598;50.508;10.436;2022-07-24T09:25:50;6.30;;;3.75;;
16963;SDS011;8598;50.508;10.436;2022-07-24T09:28:18;4.10;;;3.65;;
16963;SDS011;8598;50.508;10.436;2022-07-24T09:30:45;8.97;;;4.13;;
16963;SDS011;8598;50.508;10.436;2022-07-24T09:33:14;6.80;;;3.90;;
16963;SDS011;8598;50.508;10.436;2022-07-24T09:35:43;10.07;;;4.20;;
16963;SDS011;8598;50.508;10.436;2022-07-24T09:38:12;4.10;;;3.67;;
16963;SDS011;8598;50.508;10.436;2022-07-24T09:40:41;4.83;;;3.93;;
16963;SDS011;8598;50.508;10.436;2022-07-24T09:43:14;5.93;;;3.57;;
16963;SDS011;8598;50.508;10.436;2022-07-24T09:45:56;5.93;;;4.10;;
16963;SDS011;8598;50.508;10.436;2022-07-24T09:48:25;4.77;;;3.97;;
16963;SDS011;8598;50.508;10.436;2022-07-24T09:50:54;3.67;;;3.37;;
16963;SDS011;8598;50.508;10.436;2022-07-24T09:53:23;4.60;;;3.80;;
16963;SDS011;8598;50.508;10.436;2022-07-24T09:55:58;5.60;;;3.53;;
16963;SDS011;8598;50.508;10.436;2022-07-24T09:58:28;4.43;;;3.83;;
16963;SDS011;8598;50.508;10.436;2022-07-24T10:00:55;5.20;;;4.17;;
16963;SDS011;8598;50.508;10.436;2022-07-24T10:03:24;4.33;;;3.83;;
16963;SDS011;8598;50.508;10.436;2022-07-24T10:05:55;4.47;;;3.97;;
16963;SDS011;8598;50.508;10.436;2022-07-24T10:08:23;4.77;;;3.87;;
16963;SDS011;8598;50.508;10.436;2022-07-24T10:10:50;6.23;;;3.73;;
16963;SDS011;8598;50.508;10.436;2022-07-24T10:13:17;7.10;;;3.40;;
16963;SDS011;8598;50.508;10.436;2022-07-24T10:15:50;5.73;;;3.70;;
16963;SDS011;8598;50.508;10.436;2022-07-24T10:18:20;4.33;;;3.80;;
16963;SDS011;8598;50.508;10.436;2022-07-24T10:20:49;5.33;;;3.73;;
16963;SDS011;8598;50.508;10.436;2022-07-24T10:23:22;5.47;;;3.43;;
16963;SDS011;8598;50.508;10.436;2022-07-24T10:25:54;5.07;;;3.33;;
16963;SDS011;8598;50.508;10.436;2022-07-24T10:28:32;4.83;;;3.73;;
16963;SDS011;8598;50.508;10.436;2022-07-24T10:31:06;5.97;;;3.63;;
16963;SDS011;8598;50.508;10.436;2022-07-24T10:33:35;4.60;;;3.80;;
16963;SDS011;8598;50.508;10.436;2022-07-24T10:36:04;4.23;;;3.83;;
16963;SDS011;8598;50.508;10.436;2022-07-24T10:38:39;5.97;;;3.90;;
16963;SDS011;8598;50.508;10.436;2022-07-24T10:41:12;4.83;;;3.90;;
16963;SDS011;8598;50.508;10.436;2022-07-24T10:49:45;5.37;;;3.53;;
16963;SDS011;8598;50.508;10.436;2022-07-24T10:52:24;3.80;;;3.40;;
16963;SDS011;8598;50.508;10.436;2022-07-24T10:57:48;10.03;;;3.63;;
16963;SDS011;8598;50.508;10.436;2022-07-24T11:00:20;4.37;;;3.60;;
16963;SDS011;8598;50.508;10.436;2022-07-24T11:02:56;4.07;;;3.67;;
16963;SDS011;8598;50.508;10.436;2022-07-24T11:05:24;6.07;;;3.60;;
16963;SDS011;8598;50.508;10.436;2022-07-24T11:10:43;6.47;;;4.00;;
16963;SDS011;8598;50.508;10.436;2022-07-24T11:16:19;4.70;;;4.20;;
16963;SDS011;8598;50.508;10.436;2022-07-24T11:22:05;4.93;;;3.77;;
16963;SDS011;8598;50.508;10.436;2022-07-24T11:24:39;10.30;;;4.07;;
16963;SDS011;8598;50.508;10.436;2022-07-24T11:27:08;6.37;;;3.80;;
16963;SDS011;8598;50.508;10.436;2022-07-24T11:29:42;5.10;;;3.80;;
16963;SDS011;8598;50.508;10.436;2022-07-24T11:32:09;4.30;;;3.90;;
16963;SDS011;8598;50.508;10.436;2022-07-24T11:34:42;5.07;;;3.73;;
16963;SDS011;8598;50.508;10.436;2022-07-24T11:37:10;5.23;;;3.87;;
16963;SDS011;8598;50.508;10.436;2022-07-24T11:39:38;4.93;;;3.93;;
16963;SDS011;8598;50.508;10.436;2022-07-24T11:42:06;7.53;;;3.63;;
16963;SDS011;8598;50.508;10.436;2022-07-24T11:44:34;4.87;;;3.80;;
16963;SDS011;8598;50.508;10.436;2022-07-24T11:47:05;6.47;;;3.80;;
16963;SDS011;8598;50.508;10.436;2022-07-24T11:49:38;4.23;;;3.83;;
16963;SDS011;8598;50.508;10.436;2022-07-24T11:52:08;3.83;;;3.23;;
16963;SDS011;8598;50.508;10.436;2022-07-24T11:54:43;4.33;;;3.80;;
16963;SDS011;8598;50.508;10.436;2022-07-24T11:57:17;4.93;;;3.63;;
16963;SDS011;8598;50.508;10.436;2022-07-24T11:59:47;4.87;;;3.83;;
16963;SDS011;8598;50.508;10.436;2022-07-24T12:02:15;4.90;;;3.77;;
16963;SDS011;8598;50.508;10.436;2022-07-24T12:04:43;4.20;;;3.80;;
16963;SDS011;8598;50.508;10.436;2022-07-24T12:07:12;3.63;;;3.33;;
16963;SDS011;8598;50.508;10.436;2022-07-24T12:09:44;5.67;;;3.97;;
16963;SDS011;8598;50.508;10.436;2022-07-24T12:12:18;5.97;;;3.67;;
16963;SDS011;8598;50.508;10.436;2022-07-24T12:14:50;3.83;;;3.53;;
16963;SDS011;8598;50.508;10.436;2022-07-24T12:17:18;8.67;;;4.60;;
16963;SDS011;8598;50.508;10.436;2022-07-24T12:19:56;4.57;;;4.03;;
16963;SDS011;8598;50.508;10.436;2022-07-24T12:22:24;4.07;;;3.67;;
16963;SDS011;8598;50.508;10.436;2022-07-24T12:24:52;4.13;;;3.70;;
16963;SDS011;8598;50.508;10.436;2022-07-24T12:27:36;4.60;;;3.80;;
16963;SDS011;8598;50.508;10.436;2022-07-24T12:32:55;5.50;;;3.90;;
16963;SDS011;8598;50.508;10.436;2022-07-24T12:35:26;7.87;;;4.03;;
16963;SDS011;8598;50.508;10.436;2022-07-24T12:37:54;5.70;;;3.90;;
16963;SDS011;8598;50.508;10.436;2022-07-24T12:40:22;4.40;;;4.00;;
16963;SDS011;8598;50.508;10.436;2022-07-24T12:42:57;6.33;;;3.77;;
16963;SDS011;8598;50.508;10.436;2022-07-24T12:45:25;4.93;;;4.10;;
16963;SDS011;8598;50.508;10.436;2022-07-24T12:48:04;4.17;;;3.77;;
16963;SDS011;8598;50.508;10.436;2022-07-24T12:50:37;4.90;;;4.20;;
16963;SDS011;8598;50.508;10.436;2022-07-24T12:53:04;3.93;;;3.50;;
16963;SDS011;8598;50.508;10.436;2022-07-24T12:55:32;5.23;;;3.63;;
16963;SDS011;8598;50.508;10.436;2022-07-24T12:57:59;5.37;;;4.20;;
16963;SDS011;8598;50.508;10.436;2022-07-24T13:00:26;4.83;;;4.20;;
16963;SDS011;8598;50.508;10.436;2022-07-24T13:02:53;5.77;;;3.77;;
16963;SDS011;8598;50.508;10.436;2022-07-24T13:08:03;4.40;;;3.67;;
16963;SDS011;8598;50.508;10.436;2022-07-24T13:10:30;4.57;;;3.83;;
16963;SDS011;8598;50.508;10.436;2022-07-24T13:12:57;5.00;;;4.13;;
16963;SDS011;8598;50.508;10.436;2022-07-24T13:15:23;4.73;;;4.30;;
16963;SDS011;8598;50.508;10.436;2022-07-24T13:17:50;4.53;;;3.97;;
16963;SDS011;8598;50.508;10.436;2022-07-24T13:20:17;5.03;;;3.90;;
16963;SDS011;8598;50.508;10.436;2022-07-24T13:22:44;5.70;;;4.03;;
16963;SDS011;8598;50.508;10.436;2022-07-24T13:25:12;5.47;;;4.00;;
16963;SDS011;8598;50.508;10.436;2022-07-24T13:27:39;4.57;;;3.87;;
16963;SDS011;8598;50.508;10.436;2022-07-24T13:30:06;4.93;;;4.07;;
16963;SDS011;8598;50.508;10.436;2022-07-24T13:32:33;5.57;;;3.37;;
16963;SDS011;8598;50.508;10.436;2022-07-24T13:35:00;4.60;;;4.20;;
16963;SDS011;8598;50.508;10.436;2022-07-24T13:37:26;5.07;;;3.70;;
16963;SDS011;8598;50.508;10.436;2022-07-24T13:39:53;4.37;;;3.93;;
16963;SDS011;8598;50.508;10.436;2022-07-24T13:42:21;4.60;;;4.13;;
16963;SDS011;8598;50.508;10.436;2022-07-24T13:44:47;5.87;;;3.60;;
16963;SDS011;8598;50.508;10.436;2022-07-24T13:47:14;5.67;;;4.20;;
16963;SDS011;8598;50.508;10.436;2022-07-24T13:49:41;4.63;;;4.20;;
16963;SDS011;8598;50.508;10.436;2022-07-24T13:52:07;4.50;;;3.67;;
16963;SDS011;8598;50.508;10.436;2022-07-24T13:54:34;5.20;;;4.20;;
16963;SDS011;8598;50.508;10.436;2022-07-24T13:57:01;5.03;;;4.17;;
16963;SDS011;8598;50.508;10.436;2022-07-24T13:59:30;4.80;;;4.40;;
16963;SDS011;8598;50.508;10.436;2022-07-24T14:01:57;4.50;;;3.97;;
16963;SDS011;8598;50.508;10.436;2022-07-24T14:04:23;4.67;;;4.00;;
16963;SDS011;8598;50.508;10.436;2022-07-24T14:06:50;4.57;;;3.90;;
16963;SDS011;8598;50.508;10.436;2022-07-24T14:09:17;5.47;;;4.20;;
16963;SDS011;8598;50.508;10.436;2022-07-24T14:11:44;5.10;;;4.60;;
16963;SDS011;8598;50.508;10.436;2022-07-24T14:14:11;7.83;;;4.03;;
16963;SDS011;8598;50.508;10.436;2022-07-24T14:16:39;4.30;;;3.90;;
16963;SDS011;8598;50.508;10.436;2022-07-24T14:19:05;4.80;;;3.93;;
16963;SDS011;8598;50.508;10.436;2022-07-24T14:21:32;4.60;;;4.10;;
16963;SDS011;8598;50.508;10.436;2022-07-24T14:23:59;8.07;;;4.60;;
16963;SDS011;8598;50.508;10.436;2022-07-24T14:26:25;5.37;;;3.90;;
16963;SDS011;8598;50.508;10.436;2022-07-24T14:28:52;4.80;;;4.23;;
16963;SDS011;8598;50.508;10.436;2022-07-24T14:31:19;9.50;;;4.40;;
16963;SDS011;8598;50.508;10.436;2022-07-24T14:33:47;4.53;;;4.13;;
16963;SDS011;8598;50.508;10.436;2022-07-24T14:36:13;4.47;;;3.93;;
16963;SDS011;8598;50.508;10.436;2022-07-24T14:38:40;5.67;;;4.17;;
16963;SDS011;8598;50.508;10.436;2022-07-24T14:41:06;5.60;;;4.47;;
16963;SDS011;8598;50.508;10.436;2022-07-24T14:43:33;6.03;;;4.40;;
16963;SDS011;8598;50.508;10.436;2022-07-24T14:46:00;5.97;;;3.93;;
16963;SDS011;8598;50.508;10.436;2022-07-24T14:48:27;5.87;;;3.80;;
16963;SDS011;8598;50.508;10.436;2022-07-24T14:50:55;6.30;;;4.20;;
16963;SDS011;8598;50.508;10.436;2022-07-24T14:53:21;5.90;;;4.17;;
16963;SDS011;8598;50.508;10.436;2022-07-24T14:55:48;3.90;;;3.57;;
16963;SDS011;8598;50.508;10.436;2022-07-24T14:58:14;4.93;;;4.00;;
16963;SDS011;8598;50.508;10.436;2022-07-24T15:00:41;4.40;;;3.90;;
16963;SDS011;8598;50.508;10.436;2022-07-24T15:03:08;6.57;;;3.60;;
16963;SDS011;8598;50.508;10.436;2022-07-24T15:05:34;4.37;;;3.93;;
16963;SDS011;8598;50.508;10.436;2022-07-24T15:08:02;5.93;;;4.00;;
16963;SDS011;8598;50.508;10.436;2022-07-24T15:10:29;3.97;;;3.57;;
16963;SDS011;8598;50.508;10.436;2022-07-24T15:12:56;6.10;;;4.30;;
16963;SDS011;8598;50.508;10.436;2022-07-24T15:15:23;5.80;;;3.80;;